createdAt,value
2017-12-09T00:01:28.537Z,0.30
2017-12-09T00:03:57.763Z,0.30
2017-12-09T00:09:36.421Z,0.20
2017-12-09T00:14:55.411Z,0.20
2017-12-09T00:17:53.121Z,0.20
2017-12-09T00:20:28.892Z,0.20
2017-12-09T00:30:11.384Z,0.20
2017-12-09T00:32:42.338Z,0.20
2017-12-09T00:35:14.721Z,0.30
2017-12-09T00:37:57.000Z,0.30
2017-12-09T00:40:30.347Z,0.20
2017-12-09T00:45:36.126Z,0.20
2017-12-09T01:08:31.084Z,0.30
2017-12-09T01:14:00.057Z,0.20
2017-12-09T01:16:53.166Z,0.20
2017-12-09T01:19:28.584Z,-0.90
2017-12-09T01:24:37.930Z,0.20
2017-12-09T01:27:08.093Z,0.20
2017-12-09T01:29:42.553Z,0.20
2017-12-09T01:40:35.619Z,0.20
2017-12-09T01:43:09.401Z,0.20
2017-12-09T01:51:02.177Z,0.20
2017-12-09T02:48:39.495Z,0.10
2017-12-09T02:53:44.837Z,0.00
2017-12-09T02:56:30.112Z,-1.00
2017-12-09T03:05:03.011Z,-0.10
2017-12-09T03:07:35.108Z,-0.10
2017-12-09T03:14:13.329Z,-0.30
2017-12-09T03:23:50.214Z,-0.30
2017-12-09T03:26:34.065Z,-0.30
2017-12-09T03:39:58.628Z,-0.30
2017-12-09T03:49:34.389Z,-0.40
2017-12-09T04:07:59.678Z,-0.60
2017-12-09T04:16:02.618Z,-0.60
2017-12-09T04:18:37.438Z,-0.50
2017-12-09T04:26:46.278Z,-0.50
2017-12-09T04:32:38.619Z,-0.60
2017-12-09T04:35:10.719Z,-0.60
2017-12-09T04:40:42.556Z,-0.60
2017-12-09T04:43:11.762Z,-0.60
2017-12-09T04:45:46.530Z,-0.60
2017-12-09T04:48:29.026Z,-0.60
2017-12-09T04:51:03.350Z,-0.60
2017-12-09T04:53:31.468Z,-0.60
2017-12-09T04:56:05.332Z,-0.60
2017-12-09T04:58:40.405Z,-0.60
2017-12-09T05:01:10.015Z,-0.60
2017-12-09T05:03:40.131Z,-0.70
2017-12-09T05:06:08.272Z,-0.60
2017-12-09T05:08:37.208Z,-0.70
2017-12-09T05:11:10.098Z,-0.70
2017-12-09T05:13:39.150Z,-0.70
2017-12-09T05:19:23.250Z,-0.70
2017-12-09T05:21:54.144Z,-1.20
2017-12-09T05:24:23.233Z,-0.70
2017-12-09T05:26:52.232Z,-0.70
2017-12-09T05:29:20.316Z,-0.60
2017-12-09T05:31:55.316Z,-0.60
2017-12-09T05:34:24.456Z,-0.60
2017-12-09T05:36:52.576Z,-0.60
2017-12-09T05:39:23.297Z,-0.60
2017-12-09T05:41:52.193Z,-0.50
2017-12-09T05:44:22.119Z,-0.50
2017-12-09T05:46:50.219Z,-0.60
2017-12-09T05:49:18.304Z,-0.60
2017-12-09T05:51:46.952Z,-0.60
2017-12-09T05:54:15.092Z,-0.60
2017-12-09T06:01:54.619Z,-0.50
2017-12-09T06:04:24.791Z,-0.50
2017-12-09T06:06:52.916Z,-0.50
2017-12-09T06:09:21.004Z,-0.50
2017-12-09T06:11:49.136Z,-0.40
2017-12-09T06:14:17.223Z,-0.50
2017-12-09T06:16:50.544Z,-0.40
2017-12-09T06:19:19.602Z,-0.50
2017-12-09T06:21:47.712Z,-0.40
2017-12-09T06:24:15.842Z,-0.40
2017-12-09T06:26:43.951Z,-0.40
2017-12-09T06:31:47.436Z,-0.30
2017-12-09T06:34:16.636Z,-0.30
2017-12-09T06:36:45.903Z,-0.30
2017-12-09T06:39:14.015Z,-0.30
2017-12-09T06:41:43.184Z,-0.30
2017-12-09T06:44:12.148Z,-0.20
2017-12-09T06:46:40.300Z,-0.30
2017-12-09T06:49:08.433Z,-0.30
2017-12-09T06:51:37.568Z,-0.20
2017-12-09T06:54:05.810Z,-0.20
2017-12-09T06:56:33.936Z,-0.30
2017-12-09T06:59:02.015Z,-0.20
2017-12-09T07:04:12.535Z,-0.20
2017-12-09T07:06:43.723Z,-0.20
2017-12-09T07:09:11.808Z,-0.20
2017-12-09T07:11:39.997Z,-0.20
2017-12-09T07:14:08.139Z,-0.20
2017-12-09T07:16:37.272Z,-0.20
2017-12-09T07:19:05.540Z,-0.20
2017-12-09T07:21:34.248Z,-0.20
2017-12-09T07:24:04.296Z,-0.20
2017-12-09T07:26:32.440Z,-0.20
2017-12-09T07:29:01.315Z,-0.10
2017-12-09T07:31:29.404Z,-0.20
2017-12-09T07:33:58.376Z,-0.20
2017-12-09T07:36:26.456Z,-0.20
2017-12-09T07:38:54.624Z,-0.20
2017-12-09T07:41:28.682Z,-0.30
2017-12-09T07:43:57.598Z,-0.30
2017-12-09T07:46:25.727Z,-0.30
2017-12-09T07:48:54.612Z,-0.20
2017-12-09T07:51:25.221Z,-0.20
2017-12-09T07:53:53.307Z,-0.20
2017-12-09T08:00:32.520Z,-0.20
2017-12-09T08:11:25.979Z,-0.20
2017-12-09T08:13:55.089Z,-0.20
2017-12-09T08:16:26.679Z,-0.20
2017-12-09T08:18:56.707Z,-0.20
2017-12-09T08:21:25.155Z,-0.20
2017-12-09T08:26:27.696Z,-0.20
2017-12-09T08:28:55.968Z,-0.20
2017-12-09T08:31:28.101Z,-0.20
2017-12-09T08:34:04.246Z,-0.20
2017-12-09T08:36:35.329Z,-0.20
2017-12-09T08:39:03.549Z,-0.10
2017-12-09T08:41:32.454Z,-0.20
2017-12-09T08:44:00.592Z,-0.30
2017-12-09T08:46:28.825Z,-0.30
2017-12-09T08:48:57.057Z,-0.30
2017-12-09T08:51:25.915Z,-0.30
2017-12-09T08:53:53.992Z,-0.30
2017-12-09T08:56:22.181Z,-0.30
2017-12-09T08:58:50.289Z,-0.30
2017-12-09T09:03:59.167Z,-0.20
2017-12-09T09:09:06.554Z,-0.20
2017-12-09T09:11:34.676Z,-0.20
2017-12-09T09:14:02.849Z,-0.30
2017-12-09T09:16:31.030Z,-0.20
2017-12-09T09:18:59.196Z,-0.20
2017-12-09T09:21:27.327Z,-0.20
2017-12-09T09:23:55.564Z,-0.20
2017-12-09T09:26:23.651Z,-0.30
2017-12-09T09:28:51.762Z,-0.20
2017-12-09T09:31:19.884Z,-0.20
2017-12-09T09:33:48.844Z,-0.20
2017-12-09T09:36:16.975Z,-0.10
2017-12-09T09:38:48.704Z,-0.20
2017-12-09T09:41:17.215Z,-0.10
2017-12-09T09:43:45.312Z,-0.10
2017-12-09T09:46:13.424Z,-0.20
2017-12-09T09:48:41.607Z,-0.10
2017-12-09T09:51:10.560Z,-0.10
2017-12-09T09:53:38.757Z,-0.10
2017-12-09T09:56:06.852Z,-0.10
2017-12-09T09:58:35.753Z,-0.10
2017-12-09T10:01:18.355Z,-0.10
2017-12-09T10:03:47.244Z,0.00
2017-12-09T10:06:16.095Z,0.00
2017-12-09T10:08:44.259Z,0.00
2017-12-09T10:11:12.801Z,0.10
2017-12-09T10:13:40.917Z,0.10
2017-12-09T10:16:10.080Z,0.10
2017-12-09T10:18:38.195Z,0.20
2017-12-09T10:21:06.361Z,0.20
2017-12-09T10:23:34.439Z,0.10
2017-12-09T10:26:02.600Z,0.10
2017-12-09T10:28:30.783Z,0.20
2017-12-09T10:30:59.036Z,0.20
2017-12-09T10:33:27.196Z,0.20
2017-12-09T10:35:55.377Z,0.20
2017-12-09T10:38:23.459Z,0.20
2017-12-09T10:40:51.939Z,0.10
2017-12-09T10:43:20.205Z,0.10
2017-12-09T10:45:48.347Z,0.10
2017-12-09T10:48:16.524Z,0.10
2017-12-09T10:50:45.056Z,0.20
2017-12-09T10:53:13.398Z,0.20
2017-12-09T10:55:42.516Z,0.20
2017-12-09T10:58:11.082Z,0.20
2017-12-09T11:00:39.665Z,0.20
2017-12-09T11:03:07.786Z,0.30
2017-12-09T11:05:36.003Z,0.30
2017-12-09T11:08:05.405Z,0.30
2017-12-09T11:10:33.475Z,0.30
2017-12-09T11:13:02.405Z,0.40
2017-12-09T11:15:30.483Z,0.40
2017-12-09T11:17:58.652Z,0.50
2017-12-09T11:20:27.591Z,0.50
2017-12-09T11:22:55.895Z,0.50
2017-12-09T11:25:24.049Z,0.60
2017-12-09T11:27:52.946Z,0.60
2017-12-09T11:30:21.830Z,0.70
2017-12-09T11:32:49.926Z,0.60
2017-12-09T11:35:18.193Z,0.70
2017-12-09T11:37:47.088Z,0.70
2017-12-09T11:40:15.240Z,0.80
2017-12-09T11:42:43.381Z,0.70
2017-12-09T11:45:11.520Z,0.80
2017-12-09T11:47:39.692Z,0.80
2017-12-09T11:50:07.857Z,0.80
2017-12-09T11:52:35.965Z,0.80
2017-12-09T11:55:04.110Z,0.80
2017-12-09T11:57:32.337Z,0.80
2017-12-09T12:00:00.500Z,0.90
2017-12-09T12:02:28.909Z,0.90
2017-12-09T12:04:57.036Z,0.90
2017-12-09T12:07:25.912Z,0.90
2017-12-09T12:09:54.051Z,0.90
2017-12-09T12:12:22.431Z,0.90
2017-12-09T12:14:51.480Z,1.00
2017-12-09T12:17:19.594Z,1.00
2017-12-09T12:19:47.670Z,1.00
2017-12-09T12:22:15.881Z,1.00
2017-12-09T12:24:44.046Z,1.00
2017-12-09T12:27:12.168Z,1.00
2017-12-09T12:29:41.291Z,1.00
2017-12-09T12:32:10.276Z,1.00
2017-12-09T12:34:39.131Z,1.00
2017-12-09T12:37:07.253Z,0.90
2017-12-09T12:39:36.585Z,0.90
2017-12-09T12:42:04.933Z,0.90
2017-12-09T12:44:33.787Z,0.90
2017-12-09T12:47:02.159Z,0.90
2017-12-09T12:49:30.270Z,0.90
2017-12-09T12:51:58.437Z,0.90
2017-12-09T12:54:27.680Z,0.90
2017-12-09T12:56:55.776Z,1.00
2017-12-09T12:59:23.943Z,0.90
2017-12-09T13:01:52.167Z,0.90
2017-12-09T13:04:21.021Z,0.90
2017-12-09T13:06:49.172Z,0.90
2017-12-09T13:09:18.232Z,1.00
2017-12-09T13:11:46.951Z,1.00
2017-12-09T13:14:15.162Z,0.90
2017-12-09T13:16:43.327Z,1.00
2017-12-09T13:19:11.486Z,1.00
2017-12-09T13:21:39.591Z,1.00
2017-12-09T13:24:08.712Z,1.00
2017-12-09T13:26:36.904Z,1.00
2017-12-09T13:29:05.104Z,1.00
2017-12-09T13:31:33.340Z,1.00
2017-12-09T13:34:02.308Z,1.00
2017-12-09T13:36:31.209Z,1.00
2017-12-09T13:39:00.368Z,1.00
2017-12-09T13:41:28.585Z,1.00
2017-12-09T13:43:56.783Z,1.00
2017-12-09T13:46:25.011Z,1.00
2017-12-09T13:48:53.145Z,1.00
2017-12-09T13:51:21.268Z,0.90
2017-12-09T13:53:49.363Z,0.90
2017-12-09T13:56:17.560Z,0.90
2017-12-09T13:58:45.722Z,0.90
2017-12-09T14:01:13.847Z,0.90
2017-12-09T14:03:41.940Z,0.90
2017-12-09T14:06:10.124Z,0.90
2017-12-09T14:08:38.993Z,0.90
2017-12-09T14:11:07.161Z,0.90
2017-12-09T14:13:35.294Z,0.90
2017-12-09T14:16:03.425Z,0.90
2017-12-09T14:18:32.316Z,0.90
2017-12-09T14:21:01.187Z,0.90
2017-12-09T14:23:29.299Z,1.00
2017-12-09T14:25:57.512Z,1.00
2017-12-09T14:28:25.657Z,1.00
2017-12-09T14:30:53.751Z,0.90
2017-12-09T14:33:21.992Z,0.90
2017-12-09T14:35:50.120Z,0.90
2017-12-09T14:38:18.205Z,0.90
2017-12-09T14:40:46.367Z,0.90
2017-12-09T14:43:14.643Z,0.90
2017-12-09T14:45:42.789Z,1.00
2017-12-09T14:48:10.932Z,0.90
2017-12-09T14:50:39.055Z,1.00
2017-12-09T14:53:08.182Z,0.90
2017-12-09T14:55:36.267Z,1.00
2017-12-09T14:58:04.670Z,0.90
2017-12-09T15:00:32.920Z,0.90
2017-12-09T15:03:01.029Z,0.90
2017-12-09T15:08:04.013Z,0.90
2017-12-09T15:10:32.139Z,0.90
2017-12-09T15:13:00.273Z,0.90
2017-12-09T15:22:12.072Z,0.90
2017-12-09T15:27:20.534Z,0.90
2017-12-09T15:29:48.912Z,0.90
2017-12-09T15:32:17.033Z,0.90
2017-12-09T15:34:45.150Z,0.90
2017-12-09T15:37:19.096Z,0.90
2017-12-09T15:39:48.183Z,0.90
2017-12-09T15:42:16.431Z,0.90
2017-12-09T15:44:44.540Z,0.90
2017-12-09T15:47:12.639Z,0.80
2017-12-09T15:49:40.855Z,0.90
2017-12-09T15:52:08.962Z,0.90
2017-12-09T15:54:37.100Z,0.90
2017-12-09T15:57:05.321Z,0.90
2017-12-09T15:59:33.511Z,0.90
2017-12-09T16:02:02.061Z,0.90
2017-12-09T16:04:30.353Z,0.90
2017-12-09T16:06:58.436Z,0.90
2017-12-09T16:09:26.568Z,0.90
2017-12-09T16:11:55.704Z,0.90
2017-12-09T16:14:23.835Z,0.80
2017-12-09T16:16:52.101Z,0.80
2017-12-09T16:19:20.189Z,0.80
2017-12-09T16:21:48.427Z,0.90
2017-12-09T16:24:17.088Z,0.90
2017-12-09T16:26:45.271Z,0.90
2017-12-09T16:29:13.365Z,0.90
2017-12-09T16:31:42.375Z,0.90
2017-12-09T16:34:10.478Z,0.90
2017-12-09T16:36:39.376Z,0.90
2017-12-09T16:39:07.464Z,0.90
2017-12-09T16:41:35.604Z,0.90
2017-12-09T16:44:03.813Z,0.90
2017-12-09T16:46:31.911Z,0.90
2017-12-09T16:49:00.787Z,0.90
2017-12-09T16:51:28.884Z,0.90
2017-12-09T16:53:56.968Z,0.90
2017-12-09T16:56:25.309Z,0.90
2017-12-09T16:58:58.064Z,0.90
2017-12-09T17:01:26.148Z,0.90
2017-12-09T17:03:54.301Z,0.90
2017-12-09T17:06:23.409Z,0.90
2017-12-09T17:08:51.762Z,0.90
2017-12-09T17:14:00.017Z,0.90
2017-12-09T17:16:28.209Z,0.90
2017-12-09T17:18:59.458Z,0.90
2017-12-09T17:21:27.669Z,0.90
2017-12-09T17:23:55.806Z,0.90
2017-12-09T17:26:23.997Z,0.90
2017-12-09T17:28:52.921Z,0.90
2017-12-09T17:34:36.906Z,0.90
2017-12-09T17:37:05.046Z,0.00
2017-12-09T17:39:33.175Z,0.80
2017-12-09T17:42:01.256Z,0.90
2017-12-09T17:44:29.432Z,0.90
2017-12-09T17:47:00.248Z,0.90
2017-12-09T17:49:28.482Z,0.90
2017-12-09T17:51:56.582Z,0.80
2017-12-09T17:54:24.908Z,0.80
2017-12-09T17:56:53.647Z,0.80
2017-12-09T17:59:21.880Z,0.80
2017-12-09T18:01:51.760Z,0.80
2017-12-09T18:04:19.860Z,0.80
2017-12-09T18:06:48.798Z,0.70
2017-12-09T18:09:16.991Z,0.70
2017-12-09T18:11:45.080Z,0.70
2017-12-09T18:14:13.247Z,0.70
2017-12-09T18:16:41.457Z,0.70
2017-12-09T18:19:09.584Z,0.60
2017-12-09T18:21:37.680Z,0.70
2017-12-09T18:24:05.842Z,0.70
2017-12-09T18:26:33.954Z,0.70
2017-12-09T18:29:02.071Z,0.70
2017-12-09T18:31:30.242Z,0.60
2017-12-09T18:33:58.304Z,0.50
2017-12-09T18:36:26.410Z,0.50
2017-12-09T18:38:54.518Z,0.50
2017-12-09T18:41:22.658Z,0.60
2017-12-09T18:43:50.752Z,0.60
2017-12-09T18:46:18.835Z,0.50
2017-12-09T18:48:47.080Z,0.50
2017-12-09T18:51:15.268Z,0.50
2017-12-09T18:53:43.501Z,0.50
2017-12-09T18:56:11.630Z,0.50
2017-12-09T18:58:39.731Z,0.40
2017-12-09T19:01:08.119Z,0.50
2017-12-09T19:03:36.343Z,0.40
2017-12-09T19:06:05.519Z,0.50
2017-12-09T19:08:33.717Z,0.40
2017-12-09T19:11:01.849Z,0.40
2017-12-09T19:13:31.158Z,0.50
2017-12-09T19:15:59.270Z,0.50
2017-12-09T19:18:27.393Z,0.50
2017-12-09T19:20:55.575Z,0.40
2017-12-09T19:23:26.637Z,0.50
2017-12-09T19:25:54.831Z,0.50
2017-12-09T19:28:27.829Z,0.50
2017-12-09T19:30:56.199Z,0.50
2017-12-09T19:33:25.350Z,0.50
2017-12-09T19:35:53.626Z,0.50
2017-12-09T19:38:22.732Z,0.50
2017-12-09T19:40:50.819Z,0.50
2017-12-09T19:43:18.967Z,0.50
2017-12-09T19:45:48.093Z,0.50
2017-12-09T19:48:16.276Z,0.50
2017-12-09T19:50:45.223Z,0.50
2017-12-09T19:53:13.339Z,0.50
2017-12-09T19:55:42.557Z,0.50
2017-12-09T19:58:13.940Z,0.50
2017-12-09T20:00:42.014Z,0.50
2017-12-09T20:03:10.318Z,0.50
2017-12-09T20:05:39.437Z,0.50
2017-12-09T20:08:07.612Z,0.50
2017-12-09T20:10:38.548Z,0.50
2017-12-09T20:13:06.748Z,0.50
2017-12-09T20:15:34.920Z,0.50
2017-12-09T20:18:05.116Z,0.50
2017-12-09T20:20:34.008Z,0.50
2017-12-09T20:23:02.933Z,0.50
2017-12-09T20:25:31.063Z,0.50
2017-12-09T20:27:59.318Z,0.50
2017-12-09T20:30:29.472Z,0.40
2017-12-09T20:32:57.630Z,0.50
2017-12-09T20:35:25.744Z,0.50
2017-12-09T20:37:53.875Z,0.50
2017-12-09T20:40:22.040Z,0.30
2017-12-09T20:42:50.273Z,0.50
2017-12-09T20:45:18.421Z,0.50
2017-12-09T20:47:47.302Z,0.40
2017-12-09T20:50:16.144Z,0.40
2017-12-09T20:52:44.287Z,0.40
2017-12-09T20:55:12.412Z,0.50
2017-12-09T20:57:40.679Z,0.40
2017-12-09T21:00:08.849Z,0.40
2017-12-09T21:02:36.977Z,0.40
2017-12-09T21:05:05.896Z,0.40
2017-12-09T21:07:33.996Z,0.40
2017-12-09T21:10:02.206Z,0.30
2017-12-09T21:12:30.343Z,0.40
2017-12-09T21:14:58.432Z,0.30
2017-12-09T21:17:26.524Z,0.40
2017-12-09T21:19:55.520Z,0.40
2017-12-09T21:22:24.386Z,0.40
2017-12-09T21:24:52.484Z,0.40
2017-12-09T21:27:21.396Z,0.40
2017-12-09T21:29:49.519Z,0.40
2017-12-09T21:32:17.704Z,0.40
2017-12-09T21:34:45.827Z,0.50
2017-12-09T21:37:13.935Z,0.50
2017-12-09T21:39:42.063Z,0.50
2017-12-09T21:42:10.172Z,0.50
2017-12-09T21:44:38.280Z,0.50
2017-12-09T21:47:06.433Z,0.50
2017-12-09T21:49:34.544Z,0.50
2017-12-09T21:52:02.675Z,0.50
2017-12-09T21:54:30.774Z,0.40
2017-12-09T21:56:59.947Z,0.50
2017-12-09T21:59:28.047Z,0.50
2017-12-09T22:01:56.892Z,0.50
2017-12-09T22:04:24.996Z,0.50
2017-12-09T22:06:53.841Z,0.50
2017-12-09T22:09:21.930Z,0.50
2017-12-09T22:11:50.081Z,0.50
2017-12-09T22:14:18.160Z,0.50
2017-12-09T22:16:46.297Z,0.60
2017-12-09T22:19:14.452Z,0.60
2017-12-09T22:21:42.559Z,0.60
2017-12-09T22:24:10.702Z,0.50
2017-12-09T22:26:43.674Z,0.60
2017-12-09T22:29:11.828Z,0.50
2017-12-09T22:31:40.152Z,0.60
2017-12-09T22:34:08.292Z,0.60
2017-12-09T22:36:36.367Z,0.60
2017-12-09T22:39:04.466Z,0.60
2017-12-09T22:41:33.398Z,0.50
2017-12-09T22:44:01.531Z,0.50
2017-12-09T22:46:39.474Z,0.50
2017-12-09T22:49:07.561Z,0.50
2017-12-09T22:51:35.655Z,0.50
2017-12-09T22:54:04.660Z,0.50
2017-12-09T22:56:33.581Z,0.50
2017-12-09T22:59:03.694Z,0.50
2017-12-09T23:01:31.812Z,0.50
2017-12-09T23:03:59.959Z,0.50
2017-12-09T23:09:19.316Z,0.40
2017-12-09T23:11:48.204Z,0.40
2017-12-09T23:14:17.095Z,0.40
2017-12-09T23:16:45.939Z,0.40
2017-12-09T23:19:14.056Z,0.40
2017-12-09T23:21:42.139Z,0.40
2017-12-09T23:24:10.257Z,0.50
2017-12-09T23:26:38.421Z,0.50
2017-12-09T23:29:06.532Z,0.50
2017-12-09T23:31:34.668Z,0.50
2017-12-09T23:34:02.800Z,0.50
2017-12-09T23:36:31.674Z,0.50
2017-12-09T23:38:59.771Z,0.60
2017-12-09T23:41:27.979Z,0.60
2017-12-09T23:43:56.104Z,0.50
2017-12-09T23:46:24.900Z,0.60
2017-12-09T23:48:53.036Z,0.60
2017-12-09T23:51:21.207Z,0.60
2017-12-09T23:53:49.293Z,0.60
2017-12-09T23:56:17.507Z,0.70
2017-12-09T23:58:45.586Z,0.70
